sensor_id;sensor_type;location;lat;lon;timestamp;temperature;humidity
24011;DHT22;12217;50.792;4.372;2022-10-13T00:00:56;14.50;99.90
24011;DHT22;12217;50.792;4.372;2022-10-13T00:03:21;14.60;99.90
24011;DHT22;12217;50.792;4.372;2022-10-13T00:05:49;14.50;99.90
24011;DHT22;12217;50.792;4.372;2022-10-13T00:08:17;14.60;99.90
24011;DHT22;12217;50.792;4.372;2022-10-13T00:10:46;14.50;99.90
24011;DHT22;12217;50.792;4.372;2022-10-13T00:13:13;14.20;99.90
24011;DHT22;12217;50.792;4.372;2022-10-13T00:15:40;14.20;99.90
24011;DHT22;12217;50.792;4.372;2022-10-13T00:18:06;14.20;99.90
24011;DHT22;12217;50.792;4.372;2022-10-13T00:20:32;14.20;99.90
24011;DHT22;12217;50.792;4.372;2022-10-13T00:22:58;14.20;99.90
24011;DHT22;12217;50.792;4.372;2022-10-13T00:25:23;14.20;99.90
24011;DHT22;12217;50.792;4.372;2022-10-13T00:27:49;14.20;99.90
24011;DHT22;12217;50.792;4.372;2022-10-13T00:30:14;14.10;99.90
24011;DHT22;12217;50.792;4.372;2022-10-13T00:32:40;14.10;99.90
24011;DHT22;12217;50.792;4.372;2022-10-13T00:35:06;14.10;99.90
24011;DHT22;12217;50.792;4.372;2022-10-13T00:37:32;14.10;99.90
24011;DHT22;12217;50.792;4.372;2022-10-13T00:39:57;14.20;99.90
24011;DHT22;12217;50.792;4.372;2022-10-13T00:42:23;14.20;99.90
24011;DHT22;12217;50.792;4.372;2022-10-13T00:45:21;14.30;99.90
24011;DHT22;12217;50.792;4.372;2022-10-13T00:47:49;14.50;99.90
24011;DHT22;12217;50.792;4.372;2022-10-13T00:50:19;14.40;99.90
24011;DHT22;12217;50.792;4.372;2022-10-13T00:52:46;14.50;99.90
24011;DHT22;12217;50.792;4.372;2022-10-13T00:55:17;14.40;99.90
24011;DHT22;12217;50.792;4.372;2022-10-13T00:57:45;14.30;99.90
24011;DHT22;12217;50.792;4.372;2022-10-13T01:00:13;14.50;99.90
24011;DHT22;12217;50.792;4.372;2022-10-13T01:02:39;14.50;99.90
24011;DHT22;12217;50.792;4.372;2022-10-13T01:05:06;14.60;99.90
24011;DHT22;12217;50.792;4.372;2022-10-13T01:07:33;14.60;99.90
24011;DHT22;12217;50.792;4.372;2022-10-13T01:09:59;14.60;99.90
24011;DHT22;12217;50.792;4.372;2022-10-13T01:15:40;14.60;99.90
24011;DHT22;12217;50.792;4.372;2022-10-13T01:18:19;14.60;99.90
24011;DHT22;12217;50.792;4.372;2022-10-13T01:21:03;14.80;99.90
24011;DHT22;12217;50.792;4.372;2022-10-13T01:29:40;14.50;99.90
24011;DHT22;12217;50.792;4.372;2022-10-13T01:32:18;14.30;99.90
24011;DHT22;12217;50.792;4.372;2022-10-13T01:34:51;14.50;99.90
24011;DHT22;12217;50.792;4.372;2022-10-13T01:37:47;14.60;99.90
24011;DHT22;12217;50.792;4.372;2022-10-13T01:40:28;14.60;99.90
24011;DHT22;12217;50.792;4.372;2022-10-13T01:42:59;14.70;99.90
24011;DHT22;12217;50.792;4.372;2022-10-13T01:48:13;14.80;99.90
24011;DHT22;12217;50.792;4.372;2022-10-13T01:50:39;14.80;99.90
24011;DHT22;12217;50.792;4.372;2022-10-13T01:53:06;14.80;99.90
24011;DHT22;12217;50.792;4.372;2022-10-13T01:55:32;14.70;99.90
24011;DHT22;12217;50.792;4.372;2022-10-13T01:57:58;14.70;99.90
24011;DHT22;12217;50.792;4.372;2022-10-13T02:00:24;14.80;99.90
24011;DHT22;12217;50.792;4.372;2022-10-13T02:03:39;14.80;99.90
24011;DHT22;12217;50.792;4.372;2022-10-13T02:05:50;14.80;99.90
24011;DHT22;12217;50.792;4.372;2022-10-13T02:11:04;14.70;99.90
24011;DHT22;12217;50.792;4.372;2022-10-13T02:13:35;14.70;99.90
24011;DHT22;12217;50.792;4.372;2022-10-13T02:16:04;14.60;99.90
24011;DHT22;12217;50.792;4.372;2022-10-13T02:18:32;14.50;99.90
24011;DHT22;12217;50.792;4.372;2022-10-13T02:21:00;14.50;99.90
24011;DHT22;12217;50.792;4.372;2022-10-13T02:23:26;14.60;99.90
24011;DHT22;12217;50.792;4.372;2022-10-13T02:25:52;14.60;99.90
24011;DHT22;12217;50.792;4.372;2022-10-13T02:28:20;14.50;99.90
24011;DHT22;12217;50.792;4.372;2022-10-13T02:30:46;14.30;99.90
24011;DHT22;12217;50.792;4.372;2022-10-13T02:33:12;14.40;99.90
24011;DHT22;12217;50.792;4.372;2022-10-13T02:35:39;14.40;99.90
24011;DHT22;12217;50.792;4.372;2022-10-13T02:38:05;14.40;99.90
24011;DHT22;12217;50.792;4.372;2022-10-13T02:40:31;14.20;99.90
24011;DHT22;12217;50.792;4.372;2022-10-13T02:42:56;14.20;99.90
24011;DHT22;12217;50.792;4.372;2022-10-13T02:45:22;14.20;99.90
24011;DHT22;12217;50.792;4.372;2022-10-13T02:47:48;14.20;99.90
24011;DHT22;12217;50.792;4.372;2022-10-13T02:50:13;14.30;99.90
24011;DHT22;12217;50.792;4.372;2022-10-13T02:52:39;14.30;99.90
24011;DHT22;12217;50.792;4.372;2022-10-13T02:55:05;14.20;99.90
24011;DHT22;12217;50.792;4.372;2022-10-13T02:57:31;14.30;99.90
24011;DHT22;12217;50.792;4.372;2022-10-13T02:59:57;14.20;99.90
24011;DHT22;12217;50.792;4.372;2022-10-13T03:02:26;14.30;99.90
24011;DHT22;12217;50.792;4.372;2022-10-13T03:04:51;14.30;99.90
24011;DHT22;12217;50.792;4.372;2022-10-13T03:07:17;14.30;99.90
24011;DHT22;12217;50.792;4.372;2022-10-13T03:09:43;14.10;99.90
24011;DHT22;12217;50.792;4.372;2022-10-13T03:12:09;14.20;99.90
24011;DHT22;12217;50.792;4.372;2022-10-13T03:14:34;14.30;99.90
24011;DHT22;12217;50.792;4.372;2022-10-13T03:17:00;14.40;99.90
24011;DHT22;12217;50.792;4.372;2022-10-13T03:19:26;14.40;99.90
24011;DHT22;12217;50.792;4.372;2022-10-13T03:21:52;14.30;99.90
24011;DHT22;12217;50.792;4.372;2022-10-13T03:24:17;14.40;99.90
24011;DHT22;12217;50.792;4.372;2022-10-13T03:26:43;14.30;99.90
24011;DHT22;12217;50.792;4.372;2022-10-13T03:29:14;14.30;99.90
24011;DHT22;12217;50.792;4.372;2022-10-13T03:31:40;14.30;99.90
24011;DHT22;12217;50.792;4.372;2022-10-13T03:34:07;14.30;99.90
24011;DHT22;12217;50.792;4.372;2022-10-13T03:36:32;14.30;99.90
24011;DHT22;12217;50.792;4.372;2022-10-13T03:38:58;14.40;99.90
24011;DHT22;12217;50.792;4.372;2022-10-13T03:41:24;14.40;99.90
24011;DHT22;12217;50.792;4.372;2022-10-13T03:43:49;14.50;99.90
24011;DHT22;12217;50.792;4.372;2022-10-13T03:46:16;14.50;99.90
24011;DHT22;12217;50.792;4.372;2022-10-13T03:48:42;14.30;99.90
24011;DHT22;12217;50.792;4.372;2022-10-13T03:51:11;14.30;99.90
24011;DHT22;12217;50.792;4.372;2022-10-13T03:53:37;14.30;99.90
24011;DHT22;12217;50.792;4.372;2022-10-13T03:56:03;14.20;99.90
24011;DHT22;12217;50.792;4.372;2022-10-13T03:58:30;14.20;99.90
24011;DHT22;12217;50.792;4.372;2022-10-13T04:00:56;14.10;99.90
24011;DHT22;12217;50.792;4.372;2022-10-13T04:03:26;14.00;99.90
24011;DHT22;12217;50.792;4.372;2022-10-13T04:05:52;14.10;99.90
24011;DHT22;12217;50.792;4.372;2022-10-13T04:08:17;14.10;99.90
24011;DHT22;12217;50.792;4.372;2022-10-13T04:10:43;14.10;99.90
24011;DHT22;12217;50.792;4.372;2022-10-13T04:13:08;14.30;99.90
24011;DHT22;12217;50.792;4.372;2022-10-13T04:15:38;14.30;99.90
24011;DHT22;12217;50.792;4.372;2022-10-13T04:18:05;14.20;99.90
24011;DHT22;12217;50.792;4.372;2022-10-13T04:20:36;14.30;99.90
24011;DHT22;12217;50.792;4.372;2022-10-13T04:23:01;14.30;99.90
24011;DHT22;12217;50.792;4.372;2022-10-13T04:25:27;14.20;99.90
24011;DHT22;12217;50.792;4.372;2022-10-13T04:27:53;14.20;99.90
24011;DHT22;12217;50.792;4.372;2022-10-13T04:30:18;14.30;99.90
24011;DHT22;12217;50.792;4.372;2022-10-13T04:32:44;14.30;99.90
24011;DHT22;12217;50.792;4.372;2022-10-13T04:35:09;14.30;99.90
24011;DHT22;12217;50.792;4.372;2022-10-13T04:37:35;14.00;99.90
24011;DHT22;12217;50.792;4.372;2022-10-13T04:40:01;14.20;99.90
24011;DHT22;12217;50.792;4.372;2022-10-13T04:42:27;14.30;99.90
24011;DHT22;12217;50.792;4.372;2022-10-13T04:44:52;14.30;99.90
24011;DHT22;12217;50.792;4.372;2022-10-13T04:47:18;14.30;99.90
24011;DHT22;12217;50.792;4.372;2022-10-13T04:49:43;14.00;99.90
24011;DHT22;12217;50.792;4.372;2022-10-13T04:52:09;13.90;99.90
24011;DHT22;12217;50.792;4.372;2022-10-13T04:54:35;13.90;99.90
24011;DHT22;12217;50.792;4.372;2022-10-13T04:57:00;14.00;99.90
24011;DHT22;12217;50.792;4.372;2022-10-13T04:59:26;14.00;99.90
24011;DHT22;12217;50.792;4.372;2022-10-13T05:01:52;14.20;99.90
24011;DHT22;12217;50.792;4.372;2022-10-13T05:04:17;14.30;99.90
24011;DHT22;12217;50.792;4.372;2022-10-13T05:06:43;14.30;99.90
24011;DHT22;12217;50.792;4.372;2022-10-13T05:09:13;14.20;99.90
24011;DHT22;12217;50.792;4.372;2022-10-13T05:11:40;14.20;99.90
24011;DHT22;12217;50.792;4.372;2022-10-13T05:14:06;14.10;99.90
24011;DHT22;12217;50.792;4.372;2022-10-13T05:16:32;14.20;99.90
24011;DHT22;12217;50.792;4.372;2022-10-13T05:18:58;14.20;99.90
24011;DHT22;12217;50.792;4.372;2022-10-13T05:21:27;14.00;99.90
24011;DHT22;12217;50.792;4.372;2022-10-13T05:23:54;14.00;99.90
24011;DHT22;12217;50.792;4.372;2022-10-13T05:26:22;14.00;99.90
24011;DHT22;12217;50.792;4.372;2022-10-13T05:28:52;14.10;99.90
24011;DHT22;12217;50.792;4.372;2022-10-13T05:31:21;14.00;99.90
24011;DHT22;12217;50.792;4.372;2022-10-13T05:33:48;14.10;99.90
24011;DHT22;12217;50.792;4.372;2022-10-13T05:36:17;14.20;99.90
24011;DHT22;12217;50.792;4.372;2022-10-13T05:38:43;14.20;99.90
24011;DHT22;12217;50.792;4.372;2022-10-13T05:41:10;14.20;99.90
24011;DHT22;12217;50.792;4.372;2022-10-13T05:43:38;14.10;99.90
24011;DHT22;12217;50.792;4.372;2022-10-13T05:46:04;14.00;99.90
24011;DHT22;12217;50.792;4.372;2022-10-13T05:48:31;14.20;99.90
24011;DHT22;12217;50.792;4.372;2022-10-13T05:50:59;14.20;99.90
24011;DHT22;12217;50.792;4.372;2022-10-13T05:53:27;14.30;99.90
24011;DHT22;12217;50.792;4.372;2022-10-13T05:55:55;14.30;99.90
24011;DHT22;12217;50.792;4.372;2022-10-13T05:58:23;14.30;99.90
24011;DHT22;12217;50.792;4.372;2022-10-13T06:00:49;14.20;99.90
24011;DHT22;12217;50.792;4.372;2022-10-13T06:03:19;14.20;99.90
24011;DHT22;12217;50.792;4.372;2022-10-13T06:05:46;14.20;99.90
24011;DHT22;12217;50.792;4.372;2022-10-13T06:08:15;14.20;99.90
24011;DHT22;12217;50.792;4.372;2022-10-13T06:10:41;14.30;99.90
24011;DHT22;12217;50.792;4.372;2022-10-13T06:13:08;14.30;99.90
24011;DHT22;12217;50.792;4.372;2022-10-13T06:15:34;14.30;99.90
24011;DHT22;12217;50.792;4.372;2022-10-13T06:18:00;14.30;99.90
24011;DHT22;12217;50.792;4.372;2022-10-13T06:20:26;14.30;99.90
24011;DHT22;12217;50.792;4.372;2022-10-13T06:22:55;14.30;99.90
24011;DHT22;12217;50.792;4.372;2022-10-13T06:25:21;14.20;99.90
24011;DHT22;12217;50.792;4.372;2022-10-13T06:27:47;14.30;99.90
24011;DHT22;12217;50.792;4.372;2022-10-13T06:30:12;14.10;99.90
24011;DHT22;12217;50.792;4.372;2022-10-13T06:32:38;14.10;99.90
24011;DHT22;12217;50.792;4.372;2022-10-13T06:35:04;14.20;99.90
24011;DHT22;12217;50.792;4.372;2022-10-13T06:37:30;14.20;99.90
24011;DHT22;12217;50.792;4.372;2022-10-13T06:39:55;14.20;99.90
24011;DHT22;12217;50.792;4.372;2022-10-13T06:42:21;14.30;99.90
24011;DHT22;12217;50.792;4.372;2022-10-13T06:44:47;14.30;99.90
24011;DHT22;12217;50.792;4.372;2022-10-13T06:47:12;14.30;99.90
24011;DHT22;12217;50.792;4.372;2022-10-13T06:49:39;14.10;99.90
24011;DHT22;12217;50.792;4.372;2022-10-13T06:52:04;14.20;99.90
24011;DHT22;12217;50.792;4.372;2022-10-13T06:54:30;14.00;99.90
24011;DHT22;12217;50.792;4.372;2022-10-13T06:56:55;14.00;99.90
24011;DHT22;12217;50.792;4.372;2022-10-13T06:59:21;14.00;99.90
24011;DHT22;12217;50.792;4.372;2022-10-13T07:01:47;14.10;99.90
24011;DHT22;12217;50.792;4.372;2022-10-13T07:04:14;14.10;99.90
24011;DHT22;12217;50.792;4.372;2022-10-13T07:06:40;13.90;99.90
24011;DHT22;12217;50.792;4.372;2022-10-13T07:09:06;14.00;99.90
24011;DHT22;12217;50.792;4.372;2022-10-13T07:11:32;14.10;99.90
24011;DHT22;12217;50.792;4.372;2022-10-13T07:13:58;14.20;99.90
24011;DHT22;12217;50.792;4.372;2022-10-13T07:16:24;14.30;99.90
24011;DHT22;12217;50.792;4.372;2022-10-13T07:18:49;14.30;99.90
24011;DHT22;12217;50.792;4.372;2022-10-13T07:21:16;14.30;99.90
24011;DHT22;12217;50.792;4.372;2022-10-13T07:23:41;14.30;99.90
24011;DHT22;12217;50.792;4.372;2022-10-13T07:26:09;14.30;99.90
24011;DHT22;12217;50.792;4.372;2022-10-13T07:28:36;14.30;99.90
24011;DHT22;12217;50.792;4.372;2022-10-13T07:31:07;14.40;99.90
24011;DHT22;12217;50.792;4.372;2022-10-13T07:33:35;14.50;99.90
24011;DHT22;12217;50.792;4.372;2022-10-13T07:36:01;14.50;99.90
24011;DHT22;12217;50.792;4.372;2022-10-13T07:38:26;14.20;99.90
24011;DHT22;12217;50.792;4.372;2022-10-13T07:40:52;14.40;99.90
24011;DHT22;12217;50.792;4.372;2022-10-13T07:43:17;14.50;99.90
24011;DHT22;12217;50.792;4.372;2022-10-13T07:45:43;14.50;99.90
24011;DHT22;12217;50.792;4.372;2022-10-13T07:48:11;14.30;99.90
24011;DHT22;12217;50.792;4.372;2022-10-13T07:50:36;14.20;99.90
24011;DHT22;12217;50.792;4.372;2022-10-13T07:53:02;14.30;99.90
24011;DHT22;12217;50.792;4.372;2022-10-13T07:55:28;14.40;99.90
24011;DHT22;12217;50.792;4.372;2022-10-13T07:57:54;14.40;99.90
24011;DHT22;12217;50.792;4.372;2022-10-13T08:00:20;14.50;99.90
24011;DHT22;12217;50.792;4.372;2022-10-13T08:02:48;14.60;99.90
24011;DHT22;12217;50.792;4.372;2022-10-13T08:05:15;14.50;99.90
24011;DHT22;12217;50.792;4.372;2022-10-13T08:07:40;14.40;99.90
24011;DHT22;12217;50.792;4.372;2022-10-13T08:10:07;14.40;99.90
24011;DHT22;12217;50.792;4.372;2022-10-13T08:12:34;14.30;99.90
24011;DHT22;12217;50.792;4.372;2022-10-13T08:15:00;14.30;99.90
24011;DHT22;12217;50.792;4.372;2022-10-13T08:17:26;14.30;99.90
24011;DHT22;12217;50.792;4.372;2022-10-13T08:19:52;14.30;99.90
24011;DHT22;12217;50.792;4.372;2022-10-13T08:22:17;14.40;99.90
24011;DHT22;12217;50.792;4.372;2022-10-13T08:24:43;14.30;99.90
24011;DHT22;12217;50.792;4.372;2022-10-13T08:27:19;14.40;99.90
24011;DHT22;12217;50.792;4.372;2022-10-13T08:29:45;14.40;99.90
24011;DHT22;12217;50.792;4.372;2022-10-13T08:32:11;14.30;99.90
24011;DHT22;12217;50.792;4.372;2022-10-13T08:34:36;14.30;99.90
24011;DHT22;12217;50.792;4.372;2022-10-13T08:37:02;14.40;99.90
24011;DHT22;12217;50.792;4.372;2022-10-13T08:39:28;14.50;99.90
24011;DHT22;12217;50.792;4.372;2022-10-13T08:41:55;14.60;99.90
24011;DHT22;12217;50.792;4.372;2022-10-13T08:44:34;14.70;99.90
24011;DHT22;12217;50.792;4.372;2022-10-13T08:47:23;14.70;99.90
24011;DHT22;12217;50.792;4.372;2022-10-13T08:49:56;14.70;99.90
24011;DHT22;12217;50.792;4.372;2022-10-13T08:52:26;14.70;99.90
24011;DHT22;12217;50.792;4.372;2022-10-13T08:54:53;14.60;99.90
24011;DHT22;12217;50.792;4.372;2022-10-13T08:57:20;14.70;99.90
24011;DHT22;12217;50.792;4.372;2022-10-13T08:59:47;14.80;99.90
24011;DHT22;12217;50.792;4.372;2022-10-13T09:02:22;14.70;99.90
24011;DHT22;12217;50.792;4.372;2022-10-13T09:04:49;14.80;99.90
24011;DHT22;12217;50.792;4.372;2022-10-13T09:07:18;14.70;99.90
24011;DHT22;12217;50.792;4.372;2022-10-13T09:09:49;14.80;99.90
24011;DHT22;12217;50.792;4.372;2022-10-13T09:12:16;14.80;99.90
24011;DHT22;12217;50.792;4.372;2022-10-13T09:15:16;14.90;99.90
24011;DHT22;12217;50.792;4.372;2022-10-13T09:17:42;14.80;99.90
24011;DHT22;12217;50.792;4.372;2022-10-13T09:20:23;14.90;99.90
24011;DHT22;12217;50.792;4.372;2022-10-13T09:25:46;15.10;99.90
24011;DHT22;12217;50.792;4.372;2022-10-13T09:28:23;15.10;99.90
24011;DHT22;12217;50.792;4.372;2022-10-13T09:33:28;15.40;99.90
24011;DHT22;12217;50.792;4.372;2022-10-13T09:38:25;15.50;99.90
24011;DHT22;12217;50.792;4.372;2022-10-13T09:45:58;15.50;99.90
24011;DHT22;12217;50.792;4.372;2022-10-13T09:48:28;15.70;99.90
24011;DHT22;12217;50.792;4.372;2022-10-13T09:50:56;15.70;99.90
24011;DHT22;12217;50.792;4.372;2022-10-13T09:56:22;15.40;99.90
24011;DHT22;12217;50.792;4.372;2022-10-13T10:01:40;15.50;99.90
24011;DHT22;12217;50.792;4.372;2022-10-13T10:04:12;15.60;99.90
24011;DHT22;12217;50.792;4.372;2022-10-13T10:06:39;15.70;99.90
24011;DHT22;12217;50.792;4.372;2022-10-13T10:11:50;15.60;99.90
24011;DHT22;12217;50.792;4.372;2022-10-13T10:14:26;15.60;99.90
24011;DHT22;12217;50.792;4.372;2022-10-13T10:25:32;15.70;99.90
24011;DHT22;12217;50.792;4.372;2022-10-13T10:34:00;15.40;99.90
24011;DHT22;12217;50.792;4.372;2022-10-13T10:36:57;15.20;99.90
24011;DHT22;12217;50.792;4.372;2022-10-13T10:39:46;14.90;99.90
24011;DHT22;12217;50.792;4.372;2022-10-13T10:45:03;14.90;99.90
24011;DHT22;12217;50.792;4.372;2022-10-13T10:47:41;14.70;99.90
24011;DHT22;12217;50.792;4.372;2022-10-13T10:50:13;14.60;99.90
24011;DHT22;12217;50.792;4.372;2022-10-13T10:52:56;14.70;99.90
24011;DHT22;12217;50.792;4.372;2022-10-13T11:01:39;14.50;99.90
24011;DHT22;12217;50.792;4.372;2022-10-13T11:06:54;14.40;99.90
24011;DHT22;12217;50.792;4.372;2022-10-13T11:17:31;14.40;99.90
24011;DHT22;12217;50.792;4.372;2022-10-13T11:19:57;14.40;99.90
24011;DHT22;12217;50.792;4.372;2022-10-13T11:22:26;14.30;99.90
24011;DHT22;12217;50.792;4.372;2022-10-13T11:27:27;14.40;99.90
24011;DHT22;12217;50.792;4.372;2022-10-13T11:30:01;14.50;99.90
24011;DHT22;12217;50.792;4.372;2022-10-13T11:35:25;14.40;99.90
24011;DHT22;12217;50.792;4.372;2022-10-13T11:40:54;14.60;99.90
24011;DHT22;12217;50.792;4.372;2022-10-13T11:46:09;14.80;99.90
24011;DHT22;12217;50.792;4.372;2022-10-13T11:51:44;15.00;99.90
24011;DHT22;12217;50.792;4.372;2022-10-13T11:56:46;15.30;99.90
24011;DHT22;12217;50.792;4.372;2022-10-13T11:59:43;15.20;99.90
24011;DHT22;12217;50.792;4.372;2022-10-13T12:04:35;14.90;99.90
24011;DHT22;12217;50.792;4.372;2022-10-13T12:07:05;14.90;99.90
24011;DHT22;12217;50.792;4.372;2022-10-13T12:09:31;15.00;99.90
24011;DHT22;12217;50.792;4.372;2022-10-13T12:12:13;15.00;99.90
24011;DHT22;12217;50.792;4.372;2022-10-13T12:14:42;15.00;99.90
24011;DHT22;12217;50.792;4.372;2022-10-13T12:17:32;15.20;99.90
24011;DHT22;12217;50.792;4.372;2022-10-13T12:20:20;15.20;99.90
24011;DHT22;12217;50.792;4.372;2022-10-13T12:22:47;15.30;99.90
24011;DHT22;12217;50.792;4.372;2022-10-13T12:25:18;15.40;99.90
24011;DHT22;12217;50.792;4.372;2022-10-13T12:27:55;15.30;99.90
24011;DHT22;12217;50.792;4.372;2022-10-13T12:30:25;15.20;99.90
24011;DHT22;12217;50.792;4.372;2022-10-13T12:32:53;15.20;99.90
24011;DHT22;12217;50.792;4.372;2022-10-13T12:35:29;15.40;99.90
24011;DHT22;12217;50.792;4.372;2022-10-13T12:37:56;15.80;99.90
24011;DHT22;12217;50.792;4.372;2022-10-13T12:40:22;15.90;99.90
24011;DHT22;12217;50.792;4.372;2022-10-13T12:42:49;16.20;99.90
24011;DHT22;12217;50.792;4.372;2022-10-13T12:45:17;16.30;99.90
24011;DHT22;12217;50.792;4.372;2022-10-13T12:53:12;16.10;99.90
24011;DHT22;12217;50.792;4.372;2022-10-13T12:55:57;15.90;99.90
24011;DHT22;12217;50.792;4.372;2022-10-13T13:00:57;15.70;99.90
24011;DHT22;12217;50.792;4.372;2022-10-13T13:03:26;15.70;99.90
24011;DHT22;12217;50.792;4.372;2022-10-13T13:08:40;15.80;99.90
24011;DHT22;12217;50.792;4.372;2022-10-13T13:11:21;15.50;99.90
24011;DHT22;12217;50.792;4.372;2022-10-13T13:13:47;15.40;99.90
24011;DHT22;12217;50.792;4.372;2022-10-13T13:16:14;15.60;99.90
24011;DHT22;12217;50.792;4.372;2022-10-13T13:18:48;15.50;99.90
24011;DHT22;12217;50.792;4.372;2022-10-13T13:21:16;15.60;99.90
24011;DHT22;12217;50.792;4.372;2022-10-13T13:23:43;15.40;99.90
24011;DHT22;12217;50.792;4.372;2022-10-13T13:26:18;15.40;99.90
24011;DHT22;12217;50.792;4.372;2022-10-13T13:28:47;15.40;99.90
24011;DHT22;12217;50.792;4.372;2022-10-13T13:31:15;15.30;99.90
24011;DHT22;12217;50.792;4.372;2022-10-13T13:33:41;15.10;99.90
24011;DHT22;12217;50.792;4.372;2022-10-13T13:36:21;15.10;99.90
24011;DHT22;12217;50.792;4.372;2022-10-13T13:38:48;15.00;99.90
24011;DHT22;12217;50.792;4.372;2022-10-13T13:41:14;14.90;99.90
24011;DHT22;12217;50.792;4.372;2022-10-13T13:43:40;14.80;99.90
24011;DHT22;12217;50.792;4.372;2022-10-13T13:46:13;15.00;99.90
24011;DHT22;12217;50.792;4.372;2022-10-13T13:48:39;14.90;99.90
24011;DHT22;12217;50.792;4.372;2022-10-13T13:51:06;14.80;99.90
24011;DHT22;12217;50.792;4.372;2022-10-13T13:53:32;14.70;99.90
24011;DHT22;12217;50.792;4.372;2022-10-13T13:55:58;14.80;99.90
24011;DHT22;12217;50.792;4.372;2022-10-13T13:58:23;14.80;99.90
24011;DHT22;12217;50.792;4.372;2022-10-13T14:00:49;14.80;99.90
24011;DHT22;12217;50.792;4.372;2022-10-13T14:03:15;14.80;99.90
24011;DHT22;12217;50.792;4.372;2022-10-13T14:05:40;14.80;99.90
24011;DHT22;12217;50.792;4.372;2022-10-13T14:08:07;15.00;99.90
24011;DHT22;12217;50.792;4.372;2022-10-13T14:10:33;15.10;99.90
24011;DHT22;12217;50.792;4.372;2022-10-13T14:12:58;14.90;99.90
24011;DHT22;12217;50.792;4.372;2022-10-13T14:15:25;14.90;99.90
24011;DHT22;12217;50.792;4.372;2022-10-13T14:17:52;15.00;99.90
24011;DHT22;12217;50.792;4.372;2022-10-13T14:20:18;15.20;99.90
24011;DHT22;12217;50.792;4.372;2022-10-13T14:22:44;15.10;99.90
24011;DHT22;12217;50.792;4.372;2022-10-13T14:25:10;15.10;99.90
24011;DHT22;12217;50.792;4.372;2022-10-13T14:27:36;15.00;99.90
24011;DHT22;12217;50.792;4.372;2022-10-13T14:30:03;15.00;99.90
24011;DHT22;12217;50.792;4.372;2022-10-13T14:32:29;15.00;99.90
24011;DHT22;12217;50.792;4.372;2022-10-13T14:34:55;14.90;99.90
24011;DHT22;12217;50.792;4.372;2022-10-13T14:37:20;14.90;99.90
24011;DHT22;12217;50.792;4.372;2022-10-13T14:39:46;14.80;99.90
24011;DHT22;12217;50.792;4.372;2022-10-13T14:42:12;14.80;99.90
24011;DHT22;12217;50.792;4.372;2022-10-13T14:44:37;14.80;99.90
24011;DHT22;12217;50.792;4.372;2022-10-13T14:47:03;14.90;99.90
24011;DHT22;12217;50.792;4.372;2022-10-13T14:49:29;14.70;99.90
24011;DHT22;12217;50.792;4.372;2022-10-13T14:51:54;14.80;99.90
24011;DHT22;12217;50.792;4.372;2022-10-13T14:54:20;14.80;99.90
24011;DHT22;12217;50.792;4.372;2022-10-13T14:56:45;14.70;99.90
24011;DHT22;12217;50.792;4.372;2022-10-13T14:59:11;14.60;99.90
24011;DHT22;12217;50.792;4.372;2022-10-13T15:01:38;14.60;99.90
24011;DHT22;12217;50.792;4.372;2022-10-13T15:04:06;14.70;99.90
24011;DHT22;12217;50.792;4.372;2022-10-13T15:06:31;14.70;99.90
24011;DHT22;12217;50.792;4.372;2022-10-13T15:08:57;14.70;99.90
24011;DHT22;12217;50.792;4.372;2022-10-13T15:11:24;14.80;99.90
24011;DHT22;12217;50.792;4.372;2022-10-13T15:13:50;14.80;99.90
24011;DHT22;12217;50.792;4.372;2022-10-13T15:16:24;14.90;99.90
24011;DHT22;12217;50.792;4.372;2022-10-13T15:18:52;14.60;99.90
24011;DHT22;12217;50.792;4.372;2022-10-13T15:21:18;14.50;99.90
24011;DHT22;12217;50.792;4.372;2022-10-13T15:23:45;14.50;99.90
24011;DHT22;12217;50.792;4.372;2022-10-13T15:26:12;14.60;99.90
24011;DHT22;12217;50.792;4.372;2022-10-13T15:28:40;14.60;99.90
24011;DHT22;12217;50.792;4.372;2022-10-13T15:31:06;14.60;99.90
24011;DHT22;12217;50.792;4.372;2022-10-13T15:33:32;14.60;99.90
24011;DHT22;12217;50.792;4.372;2022-10-13T15:35:58;14.60;99.90
24011;DHT22;12217;50.792;4.372;2022-10-13T15:38:24;14.50;99.90
24011;DHT22;12217;50.792;4.372;2022-10-13T15:40:50;14.60;99.90
24011;DHT22;12217;50.792;4.372;2022-10-13T15:43:16;14.50;99.90
24011;DHT22;12217;50.792;4.372;2022-10-13T15:45:42;14.60;99.90
24011;DHT22;12217;50.792;4.372;2022-10-13T15:48:17;14.60;99.90
24011;DHT22;12217;50.792;4.372;2022-10-13T15:50:42;14.60;99.90
24011;DHT22;12217;50.792;4.372;2022-10-13T15:53:08;14.60;99.90
24011;DHT22;12217;50.792;4.372;2022-10-13T15:55:34;14.60;99.90
24011;DHT22;12217;50.792;4.372;2022-10-13T15:57:59;14.60;99.90
24011;DHT22;12217;50.792;4.372;2022-10-13T16:00:25;14.50;99.90
24011;DHT22;12217;50.792;4.372;2022-10-13T16:02:50;14.50;99.90
24011;DHT22;12217;50.792;4.372;2022-10-13T16:05:17;14.50;99.90
24011;DHT22;12217;50.792;4.372;2022-10-13T16:07:43;14.60;99.90
24011;DHT22;12217;50.792;4.372;2022-10-13T16:10:11;14.70;99.90
24011;DHT22;12217;50.792;4.372;2022-10-13T16:12:37;14.60;99.90
24011;DHT22;12217;50.792;4.372;2022-10-13T16:15:05;14.60;99.90
24011;DHT22;12217;50.792;4.372;2022-10-13T16:17:31;14.60;99.90
24011;DHT22;12217;50.792;4.372;2022-10-13T16:19:56;14.50;99.90
24011;DHT22;12217;50.792;4.372;2022-10-13T16:22:22;14.30;99.90
24011;DHT22;12217;50.792;4.372;2022-10-13T16:24:48;14.30;99.90
24011;DHT22;12217;50.792;4.372;2022-10-13T16:27:14;14.20;99.90
24011;DHT22;12217;50.792;4.372;2022-10-13T16:29:39;14.30;99.90
24011;DHT22;12217;50.792;4.372;2022-10-13T16:32:05;14.30;99.90
24011;DHT22;12217;50.792;4.372;2022-10-13T16:34:31;14.40;99.90
24011;DHT22;12217;50.792;4.372;2022-10-13T16:36:57;14.50;99.90
24011;DHT22;12217;50.792;4.372;2022-10-13T16:39:22;14.60;99.90
24011;DHT22;12217;50.792;4.372;2022-10-13T16:41:49;14.80;99.90
24011;DHT22;12217;50.792;4.372;2022-10-13T16:44:16;14.80;99.90
24011;DHT22;12217;50.792;4.372;2022-10-13T16:46:42;14.90;99.90
24011;DHT22;12217;50.792;4.372;2022-10-13T16:49:09;14.90;99.90
24011;DHT22;12217;50.792;4.372;2022-10-13T16:51:35;14.60;99.90
24011;DHT22;12217;50.792;4.372;2022-10-13T16:54:00;14.60;99.90
24011;DHT22;12217;50.792;4.372;2022-10-13T16:56:26;14.60;99.90
24011;DHT22;12217;50.792;4.372;2022-10-13T16:59:00;14.70;99.90
24011;DHT22;12217;50.792;4.372;2022-10-13T17:01:27;14.70;99.90
24011;DHT22;12217;50.792;4.372;2022-10-13T17:03:53;14.50;99.90
24011;DHT22;12217;50.792;4.372;2022-10-13T17:06:22;14.70;99.90
24011;DHT22;12217;50.792;4.372;2022-10-13T17:08:48;14.80;99.90
24011;DHT22;12217;50.792;4.372;2022-10-13T17:11:16;15.00;99.90
24011;DHT22;12217;50.792;4.372;2022-10-13T17:13:42;14.90;99.90
24011;DHT22;12217;50.792;4.372;2022-10-13T17:16:08;14.90;99.90